Portada
METAR-TAF:

METAR-TAF

Aeroports :

Córdoba, Argentina

latitud: 31-19S, longitud: 064-13W, altitud: 484 m

Observació

L'informe es va fer fa 25 minuts, a les 00:00 UTC
Vent 5 kt del Nord-Est
Temperatura 23°C
Humitat 73%
Pressió 1016 hPa
Visibilitat 10 km o més
Escasses núvols a una alçada de 4500 ft

METAR: SACO 230000Z 04005KT 9999 FEW045 23/18 Q1016 NOSIG

Hora: 21:25 (00:25 UTC)

Pronòstic

L'informe es va fer fa 1 hora i 25 minuts, a les 23:00 UTC
Pronòstic vàlid del 23 a les 00 UTC al 23 a les 24 UTC
Vent 5 kt del Nord
Visibilitat 10 km o més
sense núvols per sota de 1500 mi sense presència de cumulonimbus.
Probabilitat 30% :
Temporalment
l' 23 a les 09 UTC al 23 a les 11 UTC
Visibilitat: 5000 m
boirina
Evolucionant progressivament
l' 23 a les 12 UTC al 23 a les 15 UTC
Vent 10 kt del Nord-Est
Visibilitat 10 km o més
Cel ennuvolat a una alçada de 4500 ft

TAF: SACO 222300Z 2300/2324 36005KT CAVOK TX33/2319Z TN18/2309Z PROB30 TEMPO 2309/2311 5000 BR NSC BECMG 2312/2315 05010KT 9999 BKN045

Observacions i pronòstics meteorològics de més de 4000 aeroports (METAR i TAF).

Les estacions disponibles són els punts grocs i vermells al mapa.

Posi el ratolí al punt desitjat per veure el nom de l'estació.

Feu clic per veure les observacions i els pronòstics meteorològics.

Per canviar el mapa: feu clic els botons verds amb una creu de color negre per apropar; al botó verd amb un guió per allunyar la imatge; o en les fletxes verdes per a mapes adjacents.


METAR-TAF: